»·PEaware :: N348PD KRAL-KBUR

N348PD :: KRAL-KBUR

FLIGHT INFORMATION

Flight Status: Arrived
Operator: Privately registered:
United States
More flights under this callsign
Pilot: Anderson D. (26739)
Aircraft: PIPER PA-28 CHEROKEE ARCHER
(PA28)
More flights by this aircraft type
Origin: KRAL Riverside Mun
United States
Destination: KBUR Bob Hope-Burbank
United States
More flights between these airports :: More routes between these airports
Route: +RAL1 PDZ V186 VNY
File this flight plan on PilotEdge
Remarks: ONTP1
Altitude:
(Current/Filed)
6,000ft
Speed:
(Current/Filed)
110kts
Departed: 15-Oct-20 03:45 PM
Arrived: 15-Oct-20 04:34 PM
Distance/Time
Traveled:
48nm/0:49
Distance/Time
To Go:
Arrived

Flight Plot

Page will automatically refresh every two minutes.

Flight plan parsing failed; only flown route is shown


Map Options




Map Legend


Flown Route
Filed Route
Departure Airport
Arrival Airport
Navaid (VOR, NDB)
Fix

Horizontal Profiles

Position Reports

Time Latitude Longitude Heading Altitude Ground
Speed
15-Oct-20 15:33 33.950975 -117.444323 104 777ft 0kts
15-Oct-20 15:34 33.950975 -117.444323 104 777ft 0kts
15-Oct-20 15:35 33.950975 -117.444323 104 777ft 0kts
15-Oct-20 15:36 33.950971 -117.444305 103 777ft 0kts
15-Oct-20 15:37 33.950971 -117.444305 103 777ft 0kts
15-Oct-20 15:38 33.950971 -117.444305 103 777ft 0kts
15-Oct-20 15:39 33.950971 -117.444305 103 777ft 0kts
15-Oct-20 15:40 33.950971 -117.444305 103 777ft 0kts
15-Oct-20 15:41 33.951056 -117.443980 52 779ft 0kts
15-Oct-20 15:42 33.949974 -117.435874 109 813ft 39kts
15-Oct-20 15:43 33.949932 -117.435032 38 815ft 0kts
15-Oct-20 15:44 33.953559 -117.447448 284 956ft 90kts
15-Oct-20 15:45 33.959641 -117.477156 279 1612ft 99kts
15-Oct-20 15:46 33.966397 -117.510884 277 2277ft 103kts
15-Oct-20 15:47 33.972491 -117.545161 279 2937ft 105kts
15-Oct-20 15:48 33.956784 -117.561833 184 3554ft 85kts
15-Oct-20 15:49 33.933291 -117.565542 157 4197ft 83kts
15-Oct-20 15:50 33.922404 -117.542350 117 4805ft 82kts
15-Oct-20 15:51 33.928453 -117.520082 1 5386ft 102kts
15-Oct-20 15:52 33.936890 -117.548219 251 5920ft 100kts
15-Oct-20 15:53 33.938076 -117.586639 288 6012ft 132kts
15-Oct-20 15:54 33.953179 -117.627157 294 6018ft 133kts
15-Oct-20 15:55 33.967794 -117.667893 286 6007ft 132kts
15-Oct-20 15:56 33.981657 -117.708717 283 5969ft 131kts
15-Oct-20 15:57 33.995681 -117.749624 289 6028ft 133kts
15-Oct-20 15:58 34.008208 -117.791515 276 5987ft 136kts
15-Oct-20 15:59 34.021680 -117.834119 285 5992ft 134kts
15-Oct-20 16:00 34.035216 -117.876433 284 5967ft 135kts
15-Oct-20 16:01 34.048598 -117.918775 288 6038ft 131kts
15-Oct-20 16:02 34.061294 -117.960459 283 6029ft 133kts
15-Oct-20 16:03 34.074184 -118.002534 291 6043ft 134kts
15-Oct-20 16:04 34.087276 -118.044591 287 6046ft 134kts
15-Oct-20 16:05 34.100314 -118.087192 287 6028ft 135kts
15-Oct-20 16:06 34.113305 -118.129597 287 6026ft 134kts
15-Oct-20 16:07 34.126206 -118.171780 287 6026ft 134kts
15-Oct-20 16:08 34.138273 -118.214196 279 6027ft 133kts
15-Oct-20 16:09 34.145371 -118.258010 277 6027ft 132kts
15-Oct-20 16:10 34.152325 -118.301797 277 6027ft 133kts
15-Oct-20 16:11 34.159257 -118.345549 277 6027ft 133kts
15-Oct-20 16:12 34.166213 -118.389555 277 6027ft 133kts
15-Oct-20 16:13 34.173123 -118.433394 277 6005ft 135kts
15-Oct-20 16:14 34.180153 -118.474243 277 5429ft 121kts
15-Oct-20 16:15 34.186035 -118.514637 278 4895ft 124kts
15-Oct-20 16:16 34.192782 -118.555570 275 4308ft 123kts
15-Oct-20 16:17 34.198868 -118.594436 280 4020ft 108kts
15-Oct-20 16:18 34.202372 -118.628997 267 4072ft 103kts
15-Oct-20 16:20 34.202431 -118.664253 247 4022ft 104kts
15-Oct-20 16:21 34.185512 -118.665063 95 3996ft 85kts
15-Oct-20 16:22 34.190516 -118.636191 80 3861ft 92kts
15-Oct-20 16:23 34.201226 -118.606782 96 3251ft 92kts
15-Oct-20 16:24 34.200257 -118.577210 96 3027ft 80kts
15-Oct-20 16:25 34.200112 -118.551245 98 3016ft 75kts
15-Oct-20 16:26 34.199882 -118.526591 96 3022ft 72kts
15-Oct-20 16:27 34.199518 -118.503682 101 2941ft 65kts
15-Oct-20 16:28 34.199352 -118.478633 96 2587ft 76kts
15-Oct-20 16:29 34.199061 -118.453118 96 2102ft 70kts
15-Oct-20 16:30 34.198674 -118.429330 99 1742ft 70kts
15-Oct-20 16:31 34.199174 -118.405249 94 1481ft 75kts
15-Oct-20 16:32 34.215000 -118.391293 56 1530ft 81kts
15-Oct-20 16:33 34.219138 -118.365656 101 1068ft 82kts
15-Oct-20 16:34 34.206275 -118.359047 218 743ft 20kts
15-Oct-20 16:35 34.205999 -118.359655 243 743ft 0kts

Navigation Log

Ident Type
Flight plan parsing failed, navigation log unavailable